sensor_id;sensor_type;location;lat;lon;timestamp;pressure;altitude;pressure_sealevel;temperature;humidity
12178;BME280;6152;48.728;9.256;2023-12-07T00:00:01;97349.84;;;1.42;100.00
12178;BME280;6152;48.728;9.256;2023-12-07T00:02:27;97341.41;;;1.37;100.00
12178;BME280;6152;48.728;9.256;2023-12-07T00:04:53;97353.47;;;1.32;100.00
12178;BME280;6152;48.728;9.256;2023-12-07T00:07:19;97355.19;;;1.31;100.00
12178;BME280;6152;48.728;9.256;2023-12-07T00:09:46;97349.25;;;1.29;100.00
12178;BME280;6152;48.728;9.256;2023-12-07T00:12:12;97354.41;;;1.28;100.00
12178;BME280;6152;48.728;9.256;2023-12-07T00:14:38;97357.88;;;1.25;100.00
12178;BME280;6152;48.728;9.256;2023-12-07T00:17:04;97357.94;;;1.22;100.00
12178;BME280;6152;48.728;9.256;2023-12-07T00:19:30;97356.25;;;1.21;100.00
12178;BME280;6152;48.728;9.256;2023-12-07T00:21:56;97361.44;;;1.18;100.00
12178;BME280;6152;48.728;9.256;2023-12-07T00:24:22;97367.50;;;1.14;100.00
12178;BME280;6152;48.728;9.256;2023-12-07T00:26:48;97365.84;;;1.12;100.00
12178;BME280;6152;48.728;9.256;2023-12-07T00:29:15;97359.88;;;1.11;100.00
12178;BME280;6152;48.728;9.256;2023-12-07T00:31:41;97370.97;;;1.12;100.00
12178;BME280;6152;48.728;9.256;2023-12-07T00:34:07;97359.06;;;1.09;100.00
12178;BME280;6152;48.728;9.256;2023-12-07T00:36:35;97365.06;;;1.08;100.00
12178;BME280;6152;48.728;9.256;2023-12-07T00:39:01;97364.22;;;1.08;100.00
12178;BME280;6152;48.728;9.256;2023-12-07T00:41:30;97370.19;;;1.08;100.00
12178;BME280;6152;48.728;9.256;2023-12-07T00:43:56;97375.31;;;1.08;100.00
12178;BME280;6152;48.728;9.256;2023-12-07T00:46:22;97377.06;;;1.06;100.00
12178;BME280;6152;48.728;9.256;2023-12-07T00:48:49;97374.56;;;1.03;100.00
12178;BME280;6152;48.728;9.256;2023-12-07T00:51:15;97371.94;;;1.06;100.00
12178;BME280;6152;48.728;9.256;2023-12-07T00:53:41;97376.16;;;1.07;100.00
12178;BME280;6152;48.728;9.256;2023-12-07T00:56:08;97368.47;;;1.07;100.00
12178;BME280;6152;48.728;9.256;2023-12-07T00:58:34;97377.91;;;1.07;100.00
12178;BME280;6152;48.728;9.256;2023-12-07T01:01:00;97369.34;;;1.08;100.00
12178;BME280;6152;48.728;9.256;2023-12-07T01:03:26;97374.44;;;1.09;100.00
12178;BME280;6152;48.728;9.256;2023-12-07T01:05:53;97378.72;;;1.09;100.00
12178;BME280;6152;48.728;9.256;2023-12-07T01:08:19;97381.34;;;1.06;100.00
12178;BME280;6152;48.728;9.256;2023-12-07T01:10:45;97380.44;;;1.08;100.00
12178;BME280;6152;48.728;9.256;2023-12-07T01:13:11;97384.63;;;1.12;100.00
12178;BME280;6152;48.728;9.256;2023-12-07T01:15:37;97388.81;;;1.16;100.00
12178;BME280;6152;48.728;9.256;2023-12-07T01:18:03;97396.47;;;1.18;100.00
12178;BME280;6152;48.728;9.256;2023-12-07T01:20:29;97396.44;;;1.19;100.00
12178;BME280;6152;48.728;9.256;2023-12-07T01:22:55;97390.47;;;1.20;100.00
12178;BME280;6152;48.728;9.256;2023-12-07T01:25:21;97400.72;;;1.20;100.00
12178;BME280;6152;48.728;9.256;2023-12-07T01:27:48;97403.28;;;1.19;100.00
12178;BME280;6152;48.728;9.256;2023-12-07T01:30:14;97397.38;;;1.15;100.00
12178;BME280;6152;48.728;9.256;2023-12-07T01:32:40;97400.03;;;1.11;100.00
12178;BME280;6152;48.728;9.256;2023-12-07T01:35:07;97401.78;;;1.07;100.00
12178;BME280;6152;48.728;9.256;2023-12-07T01:37:33;97400.94;;;1.08;100.00
12178;BME280;6152;48.728;9.256;2023-12-07T01:39:59;97406.13;;;1.05;100.00
12178;BME280;6152;48.728;9.256;2023-12-07T01:42:26;97414.72;;;1.01;100.00
12178;BME280;6152;48.728;9.256;2023-12-07T01:44:52;97411.47;;;0.93;100.00
12178;BME280;6152;48.728;9.256;2023-12-07T01:47:18;97414.91;;;0.92;100.00
12178;BME280;6152;48.728;9.256;2023-12-07T01:49:44;97405.59;;;0.86;100.00
12178;BME280;6152;48.728;9.256;2023-12-07T01:52:11;97410.81;;;0.82;100.00
12178;BME280;6152;48.728;9.256;2023-12-07T01:54:38;97404.91;;;0.77;100.00
12178;BME280;6152;48.728;9.256;2023-12-07T01:57:05;97415.22;;;0.74;100.00
12178;BME280;6152;48.728;9.256;2023-12-07T01:59:31;97413.50;;;0.73;100.00
12178;BME280;6152;48.728;9.256;2023-12-07T02:01:57;97414.38;;;0.73;100.00
12178;BME280;6152;48.728;9.256;2023-12-07T02:04:23;97418.63;;;0.73;100.00
12178;BME280;6152;48.728;9.256;2023-12-07T02:06:51;97420.41;;;0.71;100.00
12178;BME280;6152;48.728;9.256;2023-12-07T02:09:18;97422.91;;;0.74;100.00
12178;BME280;6152;48.728;9.256;2023-12-07T02:11:44;97423.75;;;0.73;100.00
12178;BME280;6152;48.728;9.256;2023-12-07T02:14:11;97416.06;;;0.73;100.00
12178;BME280;6152;48.728;9.256;2023-12-07T02:16:51;97411.72;;;0.78;100.00
12178;BME280;6152;48.728;9.256;2023-12-07T02:19:44;97409.97;;;0.80;100.00
12178;BME280;6152;48.728;9.256;2023-12-07T02:22:18;97406.66;;;0.75;100.00
12178;BME280;6152;48.728;9.256;2023-12-07T02:27:41;97411.09;;;0.65;100.00
12178;BME280;6152;48.728;9.256;2023-12-07T02:30:09;97406.06;;;0.59;100.00
12178;BME280;6152;48.728;9.256;2023-12-07T02:32:40;97404.53;;;0.50;100.00
12178;BME280;6152;48.728;9.256;2023-12-07T02:35:08;97413.97;;;0.45;100.00
12178;BME280;6152;48.728;9.256;2023-12-07T02:37:49;97413.22;;;0.39;100.00
12178;BME280;6152;48.728;9.256;2023-12-07T02:40:24;97416.75;;;0.33;100.00
12178;BME280;6152;48.728;9.256;2023-12-07T02:42:52;97414.31;;;0.24;100.00
12178;BME280;6152;48.728;9.256;2023-12-07T02:45:18;97418.63;;;0.21;100.00
12178;BME280;6152;48.728;9.256;2023-12-07T02:47:45;97411.91;;;0.15;100.00
12178;BME280;6152;48.728;9.256;2023-12-07T02:50:12;97416.22;;;0.12;100.00
12178;BME280;6152;48.728;9.256;2023-12-07T02:52:38;97408.59;;;0.07;100.00
12178;BME280;6152;48.728;9.256;2023-12-07T02:55:05;97401.91;;;0.00;100.00
12178;BME280;6152;48.728;9.256;2023-12-07T02:57:31;97402.81;;;-0.04;100.00
12178;BME280;6152;48.728;9.256;2023-12-07T02:59:59;97402.88;;;-0.09;100.00
12178;BME280;6152;48.728;9.256;2023-12-07T03:02:25;97402.06;;;-0.14;100.00
12178;BME280;6152;48.728;9.256;2023-12-07T03:04:52;97414.94;;;-0.18;100.00
12178;BME280;6152;48.728;9.256;2023-12-07T03:07:18;97420.09;;;-0.21;100.00
12178;BME280;6152;48.728;9.256;2023-12-07T03:09:45;97427.84;;;-0.27;100.00
12178;BME280;6152;48.728;9.256;2023-12-07T03:12:11;97426.22;;;-0.31;100.00
12178;BME280;6152;48.728;9.256;2023-12-07T03:14:37;97419.44;;;-0.37;100.00
12178;BME280;6152;48.728;9.256;2023-12-07T03:17:03;97427.19;;;-0.44;100.00
12178;BME280;6152;48.728;9.256;2023-12-07T03:19:30;97418.81;;;-0.53;100.00
12178;BME280;6152;48.728;9.256;2023-12-07T03:21:56;97418.84;;;-0.57;100.00
12178;BME280;6152;48.728;9.256;2023-12-07T03:24:22;97419.69;;;-0.58;100.00
12178;BME280;6152;48.728;9.256;2023-12-07T03:26:48;97418.94;;;-0.65;100.00
12178;BME280;6152;48.728;9.256;2023-12-07T03:29:14;97414.72;;;-0.67;100.00
12178;BME280;6152;48.728;9.256;2023-12-07T03:31:40;97419.81;;;-0.67;100.00
12178;BME280;6152;48.728;9.256;2023-12-07T03:34:06;97424.13;;;-0.71;100.00
12178;BME280;6152;48.728;9.256;2023-12-07T03:36:32;97422.47;;;-0.75;100.00
12178;BME280;6152;48.728;9.256;2023-12-07T03:38:58;97417.38;;;-0.78;100.00
12178;BME280;6152;48.728;9.256;2023-12-07T03:41:25;97420.78;;;-0.79;100.00
12178;BME280;6152;48.728;9.256;2023-12-07T03:43:51;97420.78;;;-0.79;100.00
12178;BME280;6152;48.728;9.256;2023-12-07T03:46:17;97422.53;;;-0.81;100.00
12178;BME280;6152;48.728;9.256;2023-12-07T03:48:43;97419.16;;;-0.83;100.00
12178;BME280;6152;48.728;9.256;2023-12-07T03:51:13;97424.28;;;-0.83;100.00
12178;BME280;6152;48.728;9.256;2023-12-07T03:53:42;97429.38;;;-0.86;100.00
12178;BME280;6152;48.728;9.256;2023-12-07T03:56:09;97431.94;;;-0.86;100.00
12178;BME280;6152;48.728;9.256;2023-12-07T03:58:35;97433.69;;;-0.88;100.00
12178;BME280;6152;48.728;9.256;2023-12-07T04:01:01;97431.13;;;-0.88;100.00
12178;BME280;6152;48.728;9.256;2023-12-07T04:03:30;97431.13;;;-0.88;100.00
12178;BME280;6152;48.728;9.256;2023-12-07T04:05:56;97439.66;;;-0.89;100.00
12178;BME280;6152;48.728;9.256;2023-12-07T04:08:22;97439.66;;;-0.89;100.00
12178;BME280;6152;48.728;9.256;2023-12-07T04:10:48;97444.75;;;-0.89;100.00
12178;BME280;6152;48.728;9.256;2023-12-07T04:13:14;97442.22;;;-0.92;100.00
12178;BME280;6152;48.728;9.256;2023-12-07T04:15:40;97444.78;;;-0.92;100.00
12178;BME280;6152;48.728;9.256;2023-12-07T04:18:06;97448.19;;;-0.93;100.00
12178;BME280;6152;48.728;9.256;2023-12-07T04:20:32;97448.22;;;-0.94;100.00
12178;BME280;6152;48.728;9.256;2023-12-07T04:22:58;97444.81;;;-0.96;100.00
12178;BME280;6152;48.728;9.256;2023-12-07T04:25:24;97448.22;;;-0.96;100.00
12178;BME280;6152;48.728;9.256;2023-12-07T04:27:50;97444.00;;;-0.98;100.00
12178;BME280;6152;48.728;9.256;2023-12-07T04:30:16;97449.16;;;-1.02;100.00
12178;BME280;6152;48.728;9.256;2023-12-07T04:32:42;97453.41;;;-1.02;100.00
12178;BME280;6152;48.728;9.256;2023-12-07T04:35:09;97451.72;;;-1.05;100.00
12178;BME280;6152;48.728;9.256;2023-12-07T04:37:35;97451.72;;;-1.06;100.00
12178;BME280;6152;48.728;9.256;2023-12-07T04:40:01;97456.88;;;-1.09;100.00
12178;BME280;6152;48.728;9.256;2023-12-07T04:42:28;97456.06;;;-1.11;100.00
12178;BME280;6152;48.728;9.256;2023-12-07T04:44:54;97455.22;;;-1.13;100.00
12178;BME280;6152;48.728;9.256;2023-12-07T04:47:20;97451.84;;;-1.15;100.00
12178;BME280;6152;48.728;9.256;2023-12-07T04:49:47;97460.34;;;-1.15;100.00
12178;BME280;6152;48.728;9.256;2023-12-07T04:52:13;97451.84;;;-1.15;100.00
12178;BME280;6152;48.728;9.256;2023-12-07T04:54:39;97445.88;;;-1.16;100.00
12178;BME280;6152;48.728;9.256;2023-12-07T04:57:05;97451.84;;;-1.15;100.00
12178;BME280;6152;48.728;9.256;2023-12-07T04:59:32;97448.44;;;-1.17;100.00
12178;BME280;6152;48.728;9.256;2023-12-07T05:01:58;97448.44;;;-1.17;100.00
12178;BME280;6152;48.728;9.256;2023-12-07T05:04:24;97450.16;;;-1.19;100.00
12178;BME280;6152;48.728;9.256;2023-12-07T05:06:51;97450.16;;;-1.19;100.00
12178;BME280;6152;48.728;9.256;2023-12-07T05:09:17;97443.34;;;-1.20;100.00
12178;BME280;6152;48.728;9.256;2023-12-07T05:11:43;97450.16;;;-1.18;100.00
12178;BME280;6152;48.728;9.256;2023-12-07T05:14:11;97450.97;;;-1.17;100.00
12178;BME280;6152;48.728;9.256;2023-12-07T05:16:37;97453.56;;;-1.20;100.00
12178;BME280;6152;48.728;9.256;2023-12-07T05:19:03;97454.41;;;-1.20;100.00
12178;BME280;6152;48.728;9.256;2023-12-07T05:21:29;97464.63;;;-1.20;100.00
12178;BME280;6152;48.728;9.256;2023-12-07T05:23:55;97460.38;;;-1.19;100.00
12178;BME280;6152;48.728;9.256;2023-12-07T05:26:21;97463.75;;;-1.17;100.00
12178;BME280;6152;48.728;9.256;2023-12-07T05:28:48;97466.31;;;-1.16;100.00
12178;BME280;6152;48.728;9.256;2023-12-07T05:31:17;97466.28;;;-1.11;100.00
12178;BME280;6152;48.728;9.256;2023-12-07T05:33:44;97461.16;;;-1.11;100.00
12178;BME280;6152;48.728;9.256;2023-12-07T05:36:10;97467.13;;;-1.11;100.00
12178;BME280;6152;48.728;9.256;2023-12-07T05:38:37;97471.38;;;-1.11;100.00
12178;BME280;6152;48.728;9.256;2023-12-07T05:41:04;97460.38;;;-1.19;100.00
12178;BME280;6152;48.728;9.256;2023-12-07T05:43:30;97467.13;;;-1.12;100.00
12178;BME280;6152;48.728;9.256;2023-12-07T05:45:57;97468.84;;;-1.14;100.00
12178;BME280;6152;48.728;9.256;2023-12-07T05:48:23;97473.16;;;-1.18;100.00
12178;BME280;6152;48.728;9.256;2023-12-07T05:50:49;97466.34;;;-1.19;100.00
12178;BME280;6152;48.728;9.256;2023-12-07T05:53:15;97459.56;;;-1.21;100.00
12178;BME280;6152;48.728;9.256;2023-12-07T05:55:41;97456.19;;;-1.25;100.00
12178;BME280;6152;48.728;9.256;2023-12-07T05:58:07;97463.84;;;-1.26;100.00
12178;BME280;6152;48.728;9.256;2023-12-07T06:00:33;97462.16;;;-1.30;100.00
12178;BME280;6152;48.728;9.256;2023-12-07T06:02:59;97457.94;;;-1.34;100.00
12178;BME280;6152;48.728;9.256;2023-12-07T06:05:26;97463.97;;;-1.38;100.00
12178;BME280;6152;48.728;9.256;2023-12-07T06:07:52;97458.03;;;-1.43;100.00
12178;BME280;6152;48.728;9.256;2023-12-07T06:10:20;97459.75;;;-1.45;100.00
12178;BME280;6152;48.728;9.256;2023-12-07T06:12:46;97462.34;;;-1.48;100.00
12178;BME280;6152;48.728;9.256;2023-12-07T06:15:12;97467.44;;;-1.52;100.00
12178;BME280;6152;48.728;9.256;2023-12-07T06:17:38;97456.41;;;-1.55;100.00
12178;BME280;6152;48.728;9.256;2023-12-07T06:20:05;97453.88;;;-1.57;100.00
12178;BME280;6152;48.728;9.256;2023-12-07T06:22:31;97456.44;;;-1.57;100.00
12178;BME280;6152;48.728;9.256;2023-12-07T06:24:57;97452.19;;;-1.56;100.00
12178;BME280;6152;48.728;9.256;2023-12-07T06:27:23;97456.44;;;-1.57;100.00
12178;BME280;6152;48.728;9.256;2023-12-07T06:29:50;97453.88;;;-1.57;100.00
12178;BME280;6152;48.728;9.256;2023-12-07T06:32:16;97455.59;;;-1.59;100.00
12178;BME280;6152;48.728;9.256;2023-12-07T06:34:42;97460.72;;;-1.62;100.00
12178;BME280;6152;48.728;9.256;2023-12-07T06:37:09;97462.47;;;-1.67;100.00
12178;BME280;6152;48.728;9.256;2023-12-07T06:39:36;97456.50;;;-1.69;100.00
12178;BME280;6152;48.728;9.256;2023-12-07T06:42:03;97459.09;;;-1.72;100.00
12178;BME280;6152;48.728;9.256;2023-12-07T06:44:29;97461.66;;;-1.70;100.00
12178;BME280;6152;48.728;9.256;2023-12-07T06:46:55;97457.38;;;-1.71;100.00
12178;BME280;6152;48.728;9.256;2023-12-07T06:49:21;97467.63;;;-1.73;100.00
12178;BME280;6152;48.728;9.256;2023-12-07T06:51:48;97459.13;;;-1.75;100.00
12178;BME280;6152;48.728;9.256;2023-12-07T06:54:14;97465.91;;;-1.75;100.00
12178;BME280;6152;48.728;9.256;2023-12-07T06:56:40;97468.47;;;-1.75;100.00
12178;BME280;6152;48.728;9.256;2023-12-07T06:59:06;97458.28;;;-1.74;100.00
12178;BME280;6152;48.728;9.256;2023-12-07T07:01:32;97464.22;;;-1.75;100.00
12178;BME280;6152;48.728;9.256;2023-12-07T07:03:58;97456.56;;;-1.75;100.00
12178;BME280;6152;48.728;9.256;2023-12-07T07:06:24;97465.06;;;-1.76;100.00
12178;BME280;6152;48.728;9.256;2023-12-07T07:08:50;97464.22;;;-1.75;100.00
12178;BME280;6152;48.728;9.256;2023-12-07T07:11:16;97458.28;;;-1.77;100.00
12178;BME280;6152;48.728;9.256;2023-12-07T07:13:42;97468.47;;;-1.75;100.00
12178;BME280;6152;48.728;9.256;2023-12-07T07:16:09;97463.38;;;-1.74;100.00
12178;BME280;6152;48.728;9.256;2023-12-07T07:18:37;97457.41;;;-1.73;100.00
12178;BME280;6152;48.728;9.256;2023-12-07T07:21:03;97457.41;;;-1.73;100.00
12178;BME280;6152;48.728;9.256;2023-12-07T07:23:30;97462.53;;;-1.73;100.00
12178;BME280;6152;48.728;9.256;2023-12-07T07:25:56;97465.03;;;-1.71;100.00
12178;BME280;6152;48.728;9.256;2023-12-07T07:28:22;97455.69;;;-1.71;100.00
12178;BME280;6152;48.728;9.256;2023-12-07T07:30:48;97459.06;;;-1.66;100.00
12178;BME280;6152;48.728;9.256;2023-12-07T07:33:15;97458.16;;;-1.62;100.00
12178;BME280;6152;48.728;9.256;2023-12-07T07:35:41;97463.22;;;-1.52;100.00
12178;BME280;6152;48.728;9.256;2023-12-07T07:38:07;97460.59;;;-1.43;100.00
12178;BME280;6152;48.728;9.256;2023-12-07T07:40:33;97455.38;;;-1.34;100.00
12178;BME280;6152;48.728;9.256;2023-12-07T07:42:59;97462.13;;;-1.24;100.00
12178;BME280;6152;48.728;9.256;2023-12-07T07:45:25;97459.50;;;-1.17;100.00
12178;BME280;6152;48.728;9.256;2023-12-07T07:47:51;97457.72;;;-1.07;100.00
12178;BME280;6152;48.728;9.256;2023-12-07T07:50:18;97467.78;;;-0.92;100.00
12178;BME280;6152;48.728;9.256;2023-12-07T07:52:44;97464.22;;;-0.77;100.00
12178;BME280;6152;48.728;9.256;2023-12-07T07:55:11;97473.38;;;-0.57;100.00
12178;BME280;6152;48.728;9.256;2023-12-07T07:57:38;97478.31;;;-0.44;100.00
12178;BME280;6152;48.728;9.256;2023-12-07T08:00:04;97479.00;;;-0.29;100.00
12178;BME280;6152;48.728;9.256;2023-12-07T08:02:31;97477.19;;;-0.19;100.00
12178;BME280;6152;48.728;9.256;2023-12-07T08:04:57;97472.78;;;-0.08;100.00
12178;BME280;6152;48.728;9.256;2023-12-07T08:07:23;97478.59;;;0.02;100.00
12178;BME280;6152;48.728;9.256;2023-12-07T08:09:49;97482.78;;;0.07;100.00
12178;BME280;6152;48.728;9.256;2023-12-07T08:12:15;97475.09;;;0.10;100.00
12178;BME280;6152;48.728;9.256;2023-12-07T08:14:42;97473.28;;;0.17;100.00
12178;BME280;6152;48.728;9.256;2023-12-07T08:17:09;97475.66;;;0.30;100.00
12178;BME280;6152;48.728;9.256;2023-12-07T08:19:36;97472.03;;;0.43;100.00
12178;BME280;6152;48.728;9.256;2023-12-07T08:22:03;97477.00;;;0.52;100.00
12178;BME280;6152;48.728;9.256;2023-12-07T08:24:30;97473.44;;;0.64;100.00
12178;BME280;6152;48.728;9.256;2023-12-07T08:26:56;97481.00;;;0.72;100.00
12178;BME280;6152;48.728;9.256;2023-12-07T08:29:22;97474.91;;;0.79;100.00
12178;BME280;6152;48.728;9.256;2023-12-07T08:31:48;97478.94;;;0.92;100.00
12178;BME280;6152;48.728;9.256;2023-12-07T08:34:14;97477.84;;;1.05;100.00
12178;BME280;6152;48.728;9.256;2023-12-07T08:36:40;97480.19;;;1.19;100.00
12178;BME280;6152;48.728;9.256;2023-12-07T08:39:06;97480.75;;;1.34;100.00
12178;BME280;6152;48.728;9.256;2023-12-07T08:41:35;97488.03;;;1.56;100.00
12178;BME280;6152;48.728;9.256;2023-12-07T08:44:03;97481.81;;;1.69;100.00
12178;BME280;6152;48.728;9.256;2023-12-07T08:46:29;97478.06;;;1.85;100.00
12178;BME280;6152;48.728;9.256;2023-12-07T08:48:55;97481.66;;;2.16;100.00
12178;BME280;6152;48.728;9.256;2023-12-07T08:51:22;97483.53;;;2.48;100.00
12178;BME280;6152;48.728;9.256;2023-12-07T08:53:49;97486.31;;;2.76;100.00
12178;BME280;6152;48.728;9.256;2023-12-07T08:56:18;97477.19;;;2.98;100.00
12178;BME280;6152;48.728;9.256;2023-12-07T08:58:44;97482.56;;;3.21;100.00
12178;BME280;6152;48.728;9.256;2023-12-07T09:01:10;97473.22;;;3.51;100.00
12178;BME280;6152;48.728;9.256;2023-12-07T09:03:37;97465.06;;;3.66;100.00
12178;BME280;6152;48.728;9.256;2023-12-07T09:06:04;97472.59;;;3.41;100.00
12178;BME280;6152;48.728;9.256;2023-12-07T09:08:31;97467.97;;;3.23;100.00
12178;BME280;6152;48.728;9.256;2023-12-07T09:10:57;97460.44;;;2.82;100.00
12178;BME280;6152;48.728;9.256;2023-12-07T09:13:23;97462.28;;;2.77;100.00
12178;BME280;6152;48.728;9.256;2023-12-07T09:15:49;97464.13;;;2.72;100.00
12178;BME280;6152;48.728;9.256;2023-12-07T09:18:15;97452.59;;;2.86;100.00
12178;BME280;6152;48.728;9.256;2023-12-07T09:20:41;97455.69;;;3.34;100.00
12178;BME280;6152;48.728;9.256;2023-12-07T09:23:14;97457.63;;;3.86;100.00
12178;BME280;6152;48.728;9.256;2023-12-07T09:25:43;97459.38;;;4.43;100.00
12178;BME280;6152;48.728;9.256;2023-12-07T09:28:10;97455.69;;;4.51;100.00
12178;BME280;6152;48.728;9.256;2023-12-07T09:30:36;97450.41;;;5.07;100.00
12178;BME280;6152;48.728;9.256;2023-12-07T09:33:02;97443.78;;;5.49;100.00
12178;BME280;6152;48.728;9.256;2023-12-07T09:35:29;97445.28;;;6.26;100.00
12178;BME280;6152;48.728;9.256;2023-12-07T09:37:55;97451.91;;;6.77;100.00
12178;BME280;6152;48.728;9.256;2023-12-07T09:40:22;97448.41;;;7.20;100.00
12178;BME280;6152;48.728;9.256;2023-12-07T09:42:49;97448.91;;;7.68;100.00
12178;BME280;6152;48.728;9.256;2023-12-07T09:45:17;97448.28;;;8.39;100.00
12178;BME280;6152;48.728;9.256;2023-12-07T09:47:49;97443.16;;;9.44;98.63
12178;BME280;6152;48.728;9.256;2023-12-07T09:50:17;97442.88;;;10.47;81.98
12178;BME280;6152;48.728;9.256;2023-12-07T09:52:50;97437.22;;;10.70;63.89
12178;BME280;6152;48.728;9.256;2023-12-07T09:55:19;97431.53;;;9.84;63.22
12178;BME280;6152;48.728;9.256;2023-12-07T09:57:51;97421.31;;;11.64;59.38
12178;BME280;6152;48.728;9.256;2023-12-07T10:00:17;97414.25;;;12.63;56.51
12178;BME280;6152;48.728;9.256;2023-12-07T10:02:46;97421.84;;;13.47;51.11
12178;BME280;6152;48.728;9.256;2023-12-07T10:05:13;97410.00;;;13.92;48.76
12178;BME280;6152;48.728;9.256;2023-12-07T10:07:43;97414.78;;;13.22;45.12
12178;BME280;6152;48.728;9.256;2023-12-07T10:10:10;97410.88;;;13.54;44.43
12178;BME280;6152;48.728;9.256;2023-12-07T10:15:13;97403.16;;;12.33;47.88
12178;BME280;6152;48.728;9.256;2023-12-07T10:20:19;97400.06;;;12.94;43.53
12178;BME280;6152;48.728;9.256;2023-12-07T10:22:48;97387.53;;;11.91;47.63
12178;BME280;6152;48.728;9.256;2023-12-07T10:25:14;97390.34;;;13.36;45.04
12178;BME280;6152;48.728;9.256;2023-12-07T10:27:41;97391.91;;;13.89;45.00
12178;BME280;6152;48.728;9.256;2023-12-07T10:30:12;97377.75;;;14.77;44.45
12178;BME280;6152;48.728;9.256;2023-12-07T10:32:39;97376.69;;;15.49;42.61
12178;BME280;6152;48.728;9.256;2023-12-07T10:35:09;97369.94;;;15.57;41.38
12178;BME280;6152;48.728;9.256;2023-12-07T10:37:36;97364.81;;;16.11;40.14
12178;BME280;6152;48.728;9.256;2023-12-07T10:40:03;97367.09;;;16.81;39.60
12178;BME280;6152;48.728;9.256;2023-12-07T10:42:33;97366.59;;;17.08;39.44
12178;BME280;6152;48.728;9.256;2023-12-07T10:45:04;97369.06;;;15.11;39.33
12178;BME280;6152;48.728;9.256;2023-12-07T10:47:37;97358.38;;;15.25;40.44
12178;BME280;6152;48.728;9.256;2023-12-07T10:50:06;97357.06;;;13.76;41.25
12178;BME280;6152;48.728;9.256;2023-12-07T10:52:45;97363.13;;;13.13;42.32
12178;BME280;6152;48.728;9.256;2023-12-07T10:55:17;97356.72;;;12.65;43.95
12178;BME280;6152;48.728;9.256;2023-12-07T10:57:47;97351.31;;;11.86;44.12
12178;BME280;6152;48.728;9.256;2023-12-07T11:00:14;97357.28;;;11.74;44.76
12178;BME280;6152;48.728;9.256;2023-12-07T11:02:40;97361.97;;;12.24;44.21
12178;BME280;6152;48.728;9.256;2023-12-07T11:05:07;97355.94;;;13.29;43.07
12178;BME280;6152;48.728;9.256;2023-12-07T11:08:05;97348.69;;;12.68;42.52
12178;BME280;6152;48.728;9.256;2023-12-07T11:13:25;97335.03;;;14.16;40.85
12178;BME280;6152;48.728;9.256;2023-12-07T11:15:53;97323.31;;;15.61;39.01
12178;BME280;6152;48.728;9.256;2023-12-07T11:18:19;97316.94;;;16.08;37.77
12178;BME280;6152;48.728;9.256;2023-12-07T11:20:46;97307.03;;;17.48;36.53
12178;BME280;6152;48.728;9.256;2023-12-07T11:23:17;97315.94;;;16.42;35.96
12178;BME280;6152;48.728;9.256;2023-12-07T11:25:45;97298.50;;;17.05;35.46
12178;BME280;6152;48.728;9.256;2023-12-07T11:28:13;97289.78;;;15.76;34.79
12178;BME280;6152;48.728;9.256;2023-12-07T11:30:43;97296.06;;;14.72;37.96
12178;BME280;6152;48.728;9.256;2023-12-07T11:33:10;97292.38;;;16.09;36.68
12178;BME280;6152;48.728;9.256;2023-12-07T11:38:29;97275.22;;;17.31;35.34
12178;BME280;6152;48.728;9.256;2023-12-07T11:40:56;97277.50;;;17.96;34.63
12178;BME280;6152;48.728;9.256;2023-12-07T11:46:10;97261.94;;;18.90;31.13
12178;BME280;6152;48.728;9.256;2023-12-07T11:48:37;97253.63;;;18.85;30.92
12178;BME280;6152;48.728;9.256;2023-12-07T11:51:07;97251.41;;;19.37;31.06
12178;BME280;6152;48.728;9.256;2023-12-07T11:53:35;97245.47;;;19.25;29.34
12178;BME280;6152;48.728;9.256;2023-12-07T11:56:06;97243.91;;;18.57;30.78
12178;BME280;6152;48.728;9.256;2023-12-07T11:58:33;97242.41;;;18.54;32.18
12178;BME280;6152;48.728;9.256;2023-12-07T12:01:01;97241.84;;;16.59;32.92
12178;BME280;6152;48.728;9.256;2023-12-07T12:03:28;97237.06;;;15.79;35.34
12178;BME280;6152;48.728;9.256;2023-12-07T12:05:55;97234.91;;;15.84;34.49
12178;BME280;6152;48.728;9.256;2023-12-07T12:08:22;97222.75;;;15.16;35.33
12178;BME280;6152;48.728;9.256;2023-12-07T12:10:50;97222.44;;;16.08;34.70
12178;BME280;6152;48.728;9.256;2023-12-07T12:13:17;97215.25;;;14.07;37.26
12178;BME280;6152;48.728;9.256;2023-12-07T12:15:45;97212.25;;;12.52;39.99
12178;BME280;6152;48.728;9.256;2023-12-07T12:18:12;97211.94;;;12.17;41.54
12178;BME280;6152;48.728;9.256;2023-12-07T12:20:39;97213.88;;;12.01;40.36
12178;BME280;6152;48.728;9.256;2023-12-07T12:23:06;97208.00;;;11.85;40.97
12178;BME280;6152;48.728;9.256;2023-12-07T12:25:32;97196.91;;;12.60;40.64
12178;BME280;6152;48.728;9.256;2023-12-07T12:28:02;97193.94;;;12.00;41.08
12178;BME280;6152;48.728;9.256;2023-12-07T12:30:29;97197.22;;;11.07;42.91
12178;BME280;6152;48.728;9.256;2023-12-07T12:32:56;97196.47;;;11.20;43.84
12178;BME280;6152;48.728;9.256;2023-12-07T12:35:23;97198.34;;;11.73;42.98
12178;BME280;6152;48.728;9.256;2023-12-07T12:37:50;97180.44;;;11.81;42.14
12178;BME280;6152;48.728;9.256;2023-12-07T12:40:18;97182.03;;;11.69;43.87
12178;BME280;6152;48.728;9.256;2023-12-07T12:42:45;97177.56;;;12.62;42.47
12178;BME280;6152;48.728;9.256;2023-12-07T12:45:16;97172.06;;;12.54;42.62
12178;BME280;6152;48.728;9.256;2023-12-07T12:47:44;97161.34;;;13.33;40.38
12178;BME280;6152;48.728;9.256;2023-12-07T12:50:12;97156.84;;;13.72;38.51
12178;BME280;6152;48.728;9.256;2023-12-07T12:52:42;97158.66;;;14.06;38.82
12178;BME280;6152;48.728;9.256;2023-12-07T12:55:11;97160.41;;;14.86;36.97
12178;BME280;6152;48.728;9.256;2023-12-07T12:57:38;97161.38;;;13.21;38.71
12178;BME280;6152;48.728;9.256;2023-12-07T13:00:05;97162.84;;;12.36;40.46
12178;BME280;6152;48.728;9.256;2023-12-07T13:02:33;97152.50;;;12.22;40.45
12178;BME280;6152;48.728;9.256;2023-12-07T13:05:00;97156.69;;;13.97;39.64
12178;BME280;6152;48.728;9.256;2023-12-07T13:07:26;97152.47;;;14.07;38.58
12178;BME280;6152;48.728;9.256;2023-12-07T13:09:52;97159.47;;;13.59;38.17
12178;BME280;6152;48.728;9.256;2023-12-07T13:12:18;97159.94;;;13.17;38.55
12178;BME280;6152;48.728;9.256;2023-12-07T13:14:44;97152.63;;;12.46;39.18
12178;BME280;6152;48.728;9.256;2023-12-07T13:17:12;97149.47;;;11.62;41.92
12178;BME280;6152;48.728;9.256;2023-12-07T13:19:38;97146.16;;;9.75;43.42
12178;BME280;6152;48.728;9.256;2023-12-07T13:22:04;97142.47;;;9.00;46.90